createdAt,value
2019-05-07T00:02:15.522Z,24.89
2019-05-07T00:04:48.671Z,24.93
2019-05-07T00:07:24.204Z,24.98
2019-05-07T00:09:57.039Z,25.02
2019-05-07T00:12:32.301Z,25.04
2019-05-07T00:15:05.036Z,25.06
2019-05-07T00:17:38.078Z,25.07
2019-05-07T00:20:12.722Z,25.06
2019-05-07T00:22:44.884Z,25.06
2019-05-07T00:25:17.350Z,25.07
2019-05-07T00:27:52.174Z,25.07
2019-05-07T00:30:23.882Z,25.06
2019-05-07T00:32:56.370Z,25.02
2019-05-07T00:35:32.578Z,24.99
2019-05-07T00:38:08.817Z,24.96
2019-05-07T00:41:02.958Z,24.94
2019-05-07T00:43:38.321Z,24.93
2019-05-07T00:46:22.883Z,24.92
2019-05-07T00:48:57.449Z,24.94
2019-05-07T00:51:33.324Z,24.92
2019-05-07T00:54:07.837Z,24.91
2019-05-07T00:56:40.255Z,24.88
2019-05-07T00:59:13.195Z,24.84
2019-05-07T01:01:45.698Z,24.80
2019-05-07T01:04:18.350Z,24.79
2019-05-07T01:06:52.995Z,24.80
2019-05-07T01:09:25.328Z,24.81
2019-05-07T01:11:58.105Z,24.79
2019-05-07T01:14:32.534Z,24.81
2019-05-07T01:17:05.036Z,24.80
2019-05-07T01:19:38.294Z,24.78
2019-05-07T01:22:12.617Z,24.77
2019-05-07T01:24:45.328Z,24.75
2019-05-07T01:27:18.541Z,24.73
2019-05-07T01:29:52.747Z,24.73
2019-05-07T01:32:34.704Z,24.73
2019-05-07T01:35:15.462Z,24.71
2019-05-07T01:37:48.552Z,24.69
2019-05-07T01:40:22.802Z,24.70
2019-05-07T01:42:56.175Z,24.72
2019-05-07T01:45:42.226Z,24.72
2019-05-07T01:48:04.434Z,24.72
2019-05-07T01:50:37.216Z,24.70
2019-05-07T01:53:12.224Z,24.70
2019-05-07T01:55:45.159Z,24.69
2019-05-07T01:58:17.543Z,24.68
2019-05-07T02:00:50.015Z,24.68
2019-05-07T02:03:32.872Z,24.66
2019-05-07T02:06:14.702Z,24.66
2019-05-07T02:08:53.138Z,24.67
2019-05-07T02:11:33.645Z,24.68
2019-05-07T02:14:06.630Z,24.68
2019-05-07T02:16:41.926Z,24.65
2019-05-07T02:19:14.382Z,24.64
2019-05-07T02:21:47.018Z,24.63
2019-05-07T02:24:19.403Z,24.62
2019-05-07T02:26:52.133Z,24.61
2019-05-07T02:29:24.605Z,24.64
2019-05-07T02:31:57.444Z,24.62
2019-05-07T02:34:29.820Z,24.61
2019-05-07T02:37:04.015Z,24.62
2019-05-07T02:39:44.359Z,24.62
2019-05-07T02:42:17.166Z,24.61
2019-05-07T02:45:06.654Z,24.62
2019-05-07T02:47:39.574Z,24.64
2019-05-07T02:50:18.967Z,24.66
2019-05-07T02:53:04.305Z,24.67
2019-05-07T02:55:43.429Z,24.67
2019-05-07T02:58:14.953Z,24.63
2019-05-07T03:00:47.847Z,24.54
2019-05-07T03:03:20.579Z,24.50
2019-05-07T03:05:53.726Z,24.47
2019-05-07T03:08:27.514Z,24.41
2019-05-07T03:11:03.034Z,24.38
2019-05-07T03:13:34.436Z,24.35
2019-05-07T03:16:07.355Z,24.35
2019-05-07T03:18:39.933Z,24.35
2019-05-07T03:21:19.234Z,24.34
2019-05-07T03:24:04.354Z,24.35
2019-05-07T03:26:43.459Z,24.38
2019-05-07T03:29:23.640Z,24.37
2019-05-07T03:32:16.017Z,24.39
2019-05-07T03:35:08.506Z,24.40
2019-05-07T03:37:44.207Z,24.39
2019-05-07T03:40:15.917Z,24.41
2019-05-07T03:42:48.510Z,24.43
2019-05-07T03:45:37.922Z,24.47
2019-05-07T03:48:32.984Z,24.51
2019-05-07T03:51:04.716Z,24.55
2019-05-07T03:53:37.107Z,24.59
2019-05-07T03:56:12.929Z,24.62
2019-05-07T03:58:44.295Z,24.66
2019-05-07T04:01:16.892Z,24.69
2019-05-07T04:03:49.680Z,24.78
2019-05-07T04:06:23.389Z,24.85
2019-05-07T04:08:56.253Z,24.91
2019-05-07T04:11:28.863Z,24.99
2019-05-07T04:14:04.080Z,25.04
2019-05-07T04:16:37.893Z,25.11
2019-05-07T04:19:13.258Z,25.22
2019-05-07T04:21:44.576Z,25.32
2019-05-07T04:24:24.220Z,25.44
2019-05-07T04:27:03.789Z,25.54
2019-05-07T04:29:42.591Z,25.64
2019-05-07T04:32:15.984Z,25.73
2019-05-07T04:35:05.486Z,25.76
2019-05-07T04:37:38.353Z,25.79
2019-05-07T04:40:13.254Z,25.86
2019-05-07T04:42:45.120Z,25.92
2019-05-07T04:45:17.871Z,25.97
2019-05-07T04:47:53.562Z,26.01
2019-05-07T04:50:39.255Z,26.05
2019-05-07T04:53:02.771Z,26.05
2019-05-07T04:55:35.686Z,26.07
2019-05-07T04:58:09.111Z,26.04
2019-05-07T05:00:43.201Z,26.01
2019-05-07T05:03:20.038Z,26.02
2019-05-07T05:05:53.452Z,26.05
2019-05-07T05:08:26.209Z,26.04
2019-05-07T05:10:58.990Z,26.04
2019-05-07T05:13:33.156Z,26.04
2019-05-07T05:16:24.939Z,26.05
2019-05-07T05:18:58.906Z,26.09
2019-05-07T05:21:41.968Z,26.11
2019-05-07T05:24:18.774Z,26.14
2019-05-07T05:26:52.562Z,26.25
2019-05-07T05:29:25.013Z,26.61
2019-05-07T05:31:57.761Z,26.79
2019-05-07T05:34:32.752Z,26.80
2019-05-07T05:37:04.967Z,26.75
2019-05-07T05:39:37.688Z,26.75
2019-05-07T05:42:26.197Z,26.96
2019-05-07T05:44:58.838Z,27.31
2019-05-07T05:47:32.966Z,27.71
2019-05-07T05:50:07.351Z,28.12
2019-05-07T05:52:53.780Z,28.51
2019-05-07T05:55:26.588Z,28.89
2019-05-07T05:58:15.681Z,29.30
2019-05-07T06:01:04.141Z,29.37
2019-05-07T06:04:02.982Z,29.46
2019-05-07T06:06:42.353Z,29.50
2019-05-07T06:09:46.066Z,29.62
2019-05-07T06:12:32.942Z,29.82
2019-05-07T06:15:22.080Z,30.14
2019-05-07T06:18:18.770Z,30.43
2019-05-07T06:21:02.894Z,30.61
2019-05-07T06:23:42.031Z,30.62
2019-05-07T06:26:15.489Z,30.72
2019-05-07T06:28:48.321Z,30.82
2019-05-07T06:31:22.161Z,30.81
2019-05-07T06:33:55.985Z,30.71
2019-05-07T06:36:32.695Z,30.57
2019-05-07T06:39:15.212Z,30.47
2019-05-07T06:42:04.764Z,30.47
2019-05-07T06:44:37.590Z,30.56
2019-05-07T06:47:12.483Z,30.69
2019-05-07T06:49:44.962Z,30.85
2019-05-07T06:52:17.754Z,30.98
2019-05-07T06:54:52.323Z,30.95
2019-05-07T06:57:27.059Z,30.97
2019-05-07T07:00:02.857Z,30.89
2019-05-07T07:02:52.359Z,30.75
2019-05-07T07:05:42.618Z,30.64
2019-05-07T07:08:24.298Z,30.54
2019-05-07T07:11:31.976Z,30.43
2019-05-07T07:14:04.649Z,30.40
2019-05-07T07:16:37.186Z,30.41
2019-05-07T07:19:12.354Z,30.44
2019-05-07T07:21:44.479Z,30.50
2019-05-07T07:24:17.063Z,30.57
2019-05-07T07:26:49.630Z,30.65
2019-05-07T07:29:24.133Z,30.68
2019-05-07T07:31:59.589Z,30.72
2019-05-07T07:34:34.881Z,30.79
2019-05-07T07:37:17.953Z,30.81
2019-05-07T07:39:52.445Z,30.80
2019-05-07T07:42:25.512Z,30.82
2019-05-07T07:45:16.245Z,30.80
2019-05-07T07:47:49.721Z,30.87
2019-05-07T07:50:23.509Z,30.90
2019-05-07T07:52:55.907Z,30.84
2019-05-07T07:55:39.785Z,30.82
2019-05-07T07:58:32.209Z,30.83
2019-05-07T08:01:12.732Z,30.89
2019-05-07T08:03:45.181Z,30.73
2019-05-07T08:06:17.737Z,30.54
2019-05-07T08:08:50.384Z,30.32
2019-05-07T08:11:23.081Z,30.13
2019-05-07T08:13:56.567Z,29.95
2019-05-07T08:16:33.747Z,29.76
2019-05-07T08:19:18.314Z,29.54
2019-05-07T08:21:42.143Z,29.36
2019-05-07T08:24:14.941Z,29.29
2019-05-07T08:26:47.850Z,29.25
2019-05-07T08:29:22.341Z,29.21
2019-05-07T08:32:12.622Z,29.15
2019-05-07T08:35:07.667Z,29.14
2019-05-07T08:37:42.593Z,29.16
2019-05-07T08:40:14.950Z,29.24
2019-05-07T08:42:47.504Z,29.35
2019-05-07T08:45:38.081Z,29.47
2019-05-07T08:48:15.941Z,29.47
2019-05-07T08:50:48.829Z,29.44
2019-05-07T08:53:22.518Z,29.43
2019-05-07T08:55:55.484Z,29.42
2019-05-07T08:58:28.125Z,29.43
2019-05-07T09:01:03.003Z,29.46
2019-05-07T09:03:44.578Z,29.47
2019-05-07T09:06:21.983Z,29.52
2019-05-07T09:08:54.014Z,29.48
2019-05-07T09:11:26.538Z,29.30
2019-05-07T09:13:59.074Z,29.04
2019-05-07T09:16:32.012Z,28.84
2019-05-07T09:19:04.554Z,28.65
2019-05-07T09:21:37.547Z,28.49
2019-05-07T09:24:12.190Z,28.36
2019-05-07T09:26:58.222Z,28.29
2019-05-07T09:29:42.581Z,28.32
2019-05-07T09:32:39.441Z,28.37
2019-05-07T09:35:16.058Z,28.37
2019-05-07T09:37:48.434Z,28.25
2019-05-07T09:40:21.822Z,28.17
2019-05-07T09:42:55.687Z,28.11
2019-05-07T09:45:32.642Z,28.11
2019-05-07T09:48:05.783Z,28.11
2019-05-07T09:50:38.319Z,28.11
2019-05-07T09:53:12.657Z,28.13
2019-05-07T09:55:44.926Z,28.20
2019-05-07T09:58:17.304Z,28.28
2019-05-07T10:00:50.023Z,28.32
2019-05-07T10:03:22.887Z,28.38
2019-05-07T10:05:55.545Z,28.51
2019-05-07T10:08:28.109Z,28.67
2019-05-07T10:11:02.684Z,28.81
2019-05-07T10:13:42.028Z,28.80
2019-05-07T10:16:18.149Z,28.68
2019-05-07T10:18:52.241Z,28.61
2019-05-07T10:21:24.841Z,28.62
2019-05-07T10:23:57.679Z,28.68
2019-05-07T10:26:32.139Z,28.76
2019-05-07T10:29:05.460Z,28.76
2019-05-07T10:31:39.669Z,28.80
2019-05-07T10:34:12.979Z,28.74
2019-05-07T10:36:46.381Z,28.57
2019-05-07T10:39:19.334Z,28.43
2019-05-07T10:42:01.822Z,28.36
2019-05-07T10:44:43.299Z,28.34
2019-05-07T10:47:48.764Z,28.40
2019-05-07T10:50:36.293Z,28.51
2019-05-07T10:53:02.237Z,28.67
2019-05-07T10:55:35.134Z,28.71
2019-05-07T10:58:13.934Z,28.68
2019-05-07T11:00:46.669Z,28.66
2019-05-07T11:03:19.212Z,28.64
2019-05-07T11:05:54.128Z,28.58
2019-05-07T11:08:26.757Z,28.54
2019-05-07T11:10:59.455Z,28.52
2019-05-07T11:13:32.302Z,28.57
2019-05-07T11:16:09.262Z,28.61
2019-05-07T11:18:51.616Z,28.65
2019-05-07T11:21:33.634Z,28.61
2019-05-07T11:24:07.247Z,28.49
2019-05-07T11:26:41.996Z,28.34
2019-05-07T11:29:15.468Z,28.26
2019-05-07T11:31:52.499Z,28.24
2019-05-07T11:34:25.998Z,28.27
2019-05-07T11:36:59.029Z,28.26
2019-05-07T11:39:33.201Z,28.34
2019-05-07T11:42:17.936Z,28.41
2019-05-07T11:44:52.174Z,28.47
2019-05-07T11:47:29.303Z,28.50
2019-05-07T11:50:22.473Z,28.46
2019-05-07T11:53:00.812Z,28.39
2019-05-07T11:55:34.609Z,28.33
2019-05-07T11:58:08.688Z,28.35
2019-05-07T12:01:05.059Z,28.40
2019-05-07T12:03:38.537Z,28.46
2019-05-07T12:06:12.434Z,28.44
2019-05-07T12:08:51.396Z,28.37
2019-05-07T12:11:21.875Z,28.31
2019-05-07T12:13:57.258Z,28.30
2019-05-07T12:16:29.319Z,28.34
2019-05-07T12:19:02.448Z,28.38
2019-05-07T12:21:36.010Z,28.45
2019-05-07T12:24:08.858Z,28.53
2019-05-07T12:26:42.858Z,28.58
2019-05-07T12:29:15.450Z,28.56
2019-05-07T12:32:19.012Z,28.50
2019-05-07T12:34:56.566Z,28.47
2019-05-07T12:37:29.206Z,28.43
2019-05-07T12:40:01.976Z,28.44
2019-05-07T12:42:34.686Z,28.43
2019-05-07T12:45:08.088Z,28.38
2019-05-07T12:47:42.185Z,28.28
2019-05-07T12:50:15.305Z,28.21
2019-05-07T12:53:02.065Z,28.13
2019-05-07T12:55:42.864Z,28.03
2019-05-07T12:58:16.050Z,27.98
2019-05-07T13:00:54.088Z,27.93
2019-05-07T13:03:42.652Z,27.93
2019-05-07T13:06:14.865Z,27.91
2019-05-07T13:08:47.944Z,27.86
2019-05-07T13:11:22.176Z,27.81
2019-05-07T13:13:55.344Z,27.78
2019-05-07T13:16:27.993Z,27.77
2019-05-07T13:19:01.922Z,27.76
2019-05-07T13:21:46.412Z,27.73
2019-05-07T13:24:09.541Z,27.71
2019-05-07T13:26:42.720Z,27.70
2019-05-07T13:29:15.993Z,27.70
2019-05-07T13:31:53.898Z,27.71
2019-05-07T13:34:24.772Z,27.71
2019-05-07T13:37:02.635Z,27.70
2019-05-07T13:39:43.094Z,27.66
2019-05-07T13:42:33.183Z,27.59
2019-05-07T13:45:16.716Z,27.50
2019-05-07T13:48:14.652Z,27.38
2019-05-07T13:50:47.909Z,27.32
2019-05-07T13:53:22.700Z,27.28
2019-05-07T13:55:55.903Z,27.26
2019-05-07T13:58:28.459Z,27.25
2019-05-07T14:01:08.948Z,27.22
2019-05-07T14:03:41.524Z,27.13
2019-05-07T14:06:16.815Z,27.06
2019-05-07T14:08:51.699Z,27.01
2019-05-07T14:11:23.667Z,26.93
2019-05-07T14:13:56.826Z,26.84
2019-05-07T14:16:32.460Z,26.77
2019-05-07T14:19:07.321Z,26.67
2019-05-07T14:21:41.966Z,26.55
2019-05-07T14:24:14.845Z,26.48
2019-05-07T14:26:47.906Z,26.40
2019-05-07T14:29:24.853Z,26.34
2019-05-07T14:32:19.050Z,26.28
2019-05-07T14:35:08.427Z,26.23
2019-05-07T14:37:44.509Z,26.20
2019-05-07T14:40:18.254Z,26.15
2019-05-07T14:42:56.181Z,26.11
2019-05-07T14:45:32.635Z,26.09
2019-05-07T14:48:05.388Z,26.09
2019-05-07T14:50:37.885Z,26.08
2019-05-07T14:53:11.977Z,26.05
2019-05-07T14:55:45.014Z,25.99
2019-05-07T14:58:17.530Z,25.91
2019-05-07T15:00:51.785Z,25.83
2019-05-07T15:03:24.186Z,25.75
2019-05-07T15:05:56.865Z,25.70
2019-05-07T15:08:32.184Z,25.65
2019-05-07T15:11:04.583Z,25.58
2019-05-07T15:13:37.670Z,25.52
2019-05-07T15:16:12.425Z,25.47
2019-05-07T15:18:56.374Z,25.43
2019-05-07T15:21:28.986Z,25.38
2019-05-07T15:24:02.309Z,25.35
2019-05-07T15:26:36.715Z,25.35
2019-05-07T15:29:12.790Z,25.33
2019-05-07T15:32:04.688Z,25.32
2019-05-07T15:34:37.283Z,25.30
2019-05-07T15:37:12.145Z,25.27
2019-05-07T15:39:44.630Z,25.24
2019-05-07T15:42:17.006Z,25.22
2019-05-07T15:44:49.720Z,25.19
2019-05-07T15:47:28.038Z,25.17
2019-05-07T15:50:00.696Z,25.15
2019-05-07T15:52:58.254Z,25.13
2019-05-07T15:55:25.484Z,25.11
2019-05-07T15:57:58.764Z,25.09
2019-05-07T16:00:33.467Z,25.08
2019-05-07T16:03:27.636Z,25.08
2019-05-07T16:06:03.581Z,25.06
2019-05-07T16:08:37.998Z,25.01
2019-05-07T16:11:12.438Z,25.00
2019-05-07T16:13:49.404Z,25.00
2019-05-07T16:16:26.975Z,25.02
2019-05-07T16:19:12.623Z,25.04
2019-05-07T16:21:45.634Z,25.04
2019-05-07T16:24:18.288Z,25.02
2019-05-07T16:26:52.370Z,25.02
2019-05-07T16:29:25.098Z,25.02
2019-05-07T16:31:57.797Z,24.97
2019-05-07T16:34:32.396Z,24.96
2019-05-07T16:37:07.298Z,24.98
2019-05-07T16:39:38.833Z,25.00
2019-05-07T16:42:11.562Z,24.98
2019-05-07T16:44:44.601Z,24.96
2019-05-07T16:47:17.545Z,24.92
2019-05-07T16:49:50.224Z,24.92
2019-05-07T16:52:22.977Z,24.92
2019-05-07T16:54:55.395Z,24.91
2019-05-07T16:57:53.013Z,24.89
2019-05-07T17:00:33.340Z,24.88
2019-05-07T17:03:08.068Z,24.86
2019-05-07T17:05:42.894Z,24.84
2019-05-07T17:08:28.761Z,24.82
2019-05-07T17:11:03.087Z,24.77
2019-05-07T17:13:36.173Z,24.71
2019-05-07T17:16:09.108Z,24.69
2019-05-07T17:18:42.462Z,24.66
2019-05-07T17:21:14.900Z,24.62
2019-05-07T17:23:47.817Z,24.62
2019-05-07T17:26:23.028Z,24.61
2019-05-07T17:28:55.001Z,24.59
2019-05-07T17:31:27.738Z,24.59
2019-05-07T17:34:02.243Z,24.56
2019-05-07T17:36:34.799Z,24.55
2019-05-07T17:39:11.976Z,24.52
2019-05-07T17:41:43.974Z,24.50
2019-05-07T17:44:16.518Z,24.45
2019-05-07T17:46:48.870Z,24.42
2019-05-07T17:49:21.944Z,24.38
2019-05-07T17:51:54.348Z,24.36
2019-05-07T17:54:27.406Z,24.33
2019-05-07T17:57:02.001Z,24.31
2019-05-07T17:59:34.194Z,24.30
2019-05-07T18:02:42.153Z,24.28
2019-05-07T18:05:15.553Z,24.25
2019-05-07T18:07:48.184Z,24.21
2019-05-07T18:10:21.756Z,24.19
2019-05-07T18:12:56.070Z,24.18
2019-05-07T18:15:28.739Z,24.16
2019-05-07T18:18:05.276Z,24.14
2019-05-07T18:20:38.086Z,24.11
2019-05-07T18:23:16.640Z,24.12
2019-05-07T18:25:45.874Z,24.13
2019-05-07T18:28:18.850Z,24.16
2019-05-07T18:30:51.465Z,24.15
2019-05-07T18:33:52.423Z,24.14
2019-05-07T18:36:25.183Z,24.13
2019-05-07T18:38:58.379Z,24.11
2019-05-07T18:41:32.656Z,24.12
2019-05-07T18:44:12.358Z,24.12
2019-05-07T18:46:41.897Z,24.11
2019-05-07T18:49:15.642Z,24.11
2019-05-07T18:51:49.546Z,24.12
2019-05-07T18:54:30.460Z,24.14
2019-05-07T18:57:02.325Z,24.12
2019-05-07T18:59:37.514Z,24.10
2019-05-07T19:02:11.756Z,24.08
2019-05-07T19:04:44.232Z,24.09
2019-05-07T19:07:16.727Z,24.10
2019-05-07T19:09:49.259Z,24.08
2019-05-07T19:12:25.267Z,24.06
2019-05-07T19:14:58.593Z,24.03
2019-05-07T19:17:34.815Z,23.99
2019-05-07T19:20:08.680Z,23.98
2019-05-07T19:22:42.443Z,23.96
2019-05-07T19:25:15.878Z,23.97
2019-05-07T19:27:48.416Z,23.95
2019-05-07T19:30:21.788Z,23.94
2019-05-07T19:32:54.382Z,23.92
2019-05-07T19:35:26.997Z,23.91
2019-05-07T19:37:59.526Z,23.90
2019-05-07T19:40:32.543Z,23.90
2019-05-07T19:43:06.259Z,23.91
2019-05-07T19:45:38.899Z,23.90
2019-05-07T19:48:12.476Z,23.91
2019-05-07T19:50:44.887Z,23.90
2019-05-07T19:53:20.386Z,23.89
2019-05-07T19:56:15.980Z,23.86
2019-05-07T19:58:48.872Z,23.83
2019-05-07T20:01:25.970Z,23.79
2019-05-07T20:04:02.576Z,23.79
2019-05-07T20:06:35.352Z,23.79
2019-05-07T20:09:13.056Z,23.80
2019-05-07T20:11:49.456Z,23.81
2019-05-07T20:14:22.433Z,23.82
2019-05-07T20:16:55.378Z,23.83
2019-05-07T20:19:28.233Z,23.83
2019-05-07T20:22:02.129Z,23.82
2019-05-07T20:24:35.069Z,23.81
2019-05-07T20:27:07.500Z,23.81
2019-05-07T20:29:40.095Z,23.82
2019-05-07T20:32:12.709Z,23.82
2019-05-07T20:34:47.967Z,23.83
2019-05-07T20:37:22.012Z,23.83
2019-05-07T20:39:56.977Z,23.84
2019-05-07T20:42:29.475Z,23.83
2019-05-07T20:45:03.024Z,23.82
2019-05-07T20:47:36.078Z,23.83
2019-05-07T20:50:09.300Z,23.82
2019-05-07T20:52:42.766Z,23.80
2019-05-07T20:55:30.827Z,23.77
2019-05-07T20:58:03.232Z,23.77
2019-05-07T21:00:36.268Z,23.76
2019-05-07T21:03:23.425Z,23.75
2019-05-07T21:05:55.754Z,23.76
2019-05-07T21:08:28.551Z,23.74
2019-05-07T21:11:02.505Z,23.77
2019-05-07T21:13:35.558Z,23.78
2019-05-07T21:16:08.015Z,23.77
2019-05-07T21:18:42.117Z,23.76
2019-05-07T21:21:14.935Z,23.75
2019-05-07T21:23:47.438Z,23.71
2019-05-07T21:26:22.271Z,23.72
2019-05-07T21:28:54.343Z,23.70
2019-05-07T21:31:26.804Z,23.71
2019-05-07T21:33:59.481Z,23.72
2019-05-07T21:36:32.540Z,23.73
2019-05-07T21:39:07.054Z,23.72
2019-05-07T21:41:39.470Z,23.72
2019-05-07T21:44:12.391Z,23.72
2019-05-07T21:46:44.795Z,23.70
2019-05-07T21:49:17.803Z,23.69
2019-05-07T21:51:52.318Z,23.69
2019-05-07T21:54:43.628Z,23.68
2019-05-07T21:57:33.010Z,23.67
2019-05-07T22:00:22.131Z,23.63
2019-05-07T22:02:54.704Z,23.59
2019-05-07T22:05:27.143Z,23.59
2019-05-07T22:08:01.816Z,23.61
2019-05-07T22:10:34.515Z,23.63
2019-05-07T22:13:06.945Z,23.67
2019-05-07T22:15:39.624Z,23.68
2019-05-07T22:18:12.700Z,23.69
2019-05-07T22:20:45.181Z,23.68
2019-05-07T22:23:17.559Z,23.67
2019-05-07T22:25:50.126Z,23.65
2019-05-07T22:28:22.572Z,23.62
2019-05-07T22:31:14.056Z,23.59
2019-05-07T22:34:04.071Z,23.58
2019-05-07T22:36:36.731Z,23.55
2019-05-07T22:39:09.978Z,23.53
2019-05-07T22:41:42.605Z,23.53
2019-05-07T22:44:15.590Z,23.50
2019-05-07T22:46:48.228Z,23.48
2019-05-07T22:49:22.915Z,23.47
2019-05-07T22:51:55.489Z,23.45
2019-05-07T22:54:28.334Z,23.45
2019-05-07T22:57:14.200Z,23.45
2019-05-07T22:59:46.715Z,23.45
2019-05-07T23:02:20.032Z,23.44
2019-05-07T23:04:52.983Z,23.43
2019-05-07T23:07:25.600Z,23.43
2019-05-07T23:09:58.048Z,23.42
2019-05-07T23:12:32.658Z,23.43
2019-05-07T23:15:05.191Z,23.43
2019-05-07T23:17:38.038Z,23.40
2019-05-07T23:20:11.152Z,23.38
2019-05-07T23:22:44.437Z,23.37
2019-05-07T23:25:17.016Z,23.36
2019-05-07T23:27:49.400Z,23.35
2019-05-07T23:30:22.430Z,23.36
2019-05-07T23:32:55.210Z,23.37
2019-05-07T23:35:27.583Z,23.37
2019-05-07T23:38:02.462Z,23.38
2019-05-07T23:40:58.715Z,23.38
2019-05-07T23:43:31.405Z,23.37
2019-05-07T23:46:04.235Z,23.36
2019-05-07T23:48:36.812Z,23.37
2019-05-07T23:51:09.342Z,23.35
2019-05-07T23:53:44.173Z,23.33
2019-05-07T23:56:16.503Z,23.32
2019-05-07T23:58:49.227Z,23.31
